sensor_id;sensor_type;location;lat;lon;timestamp;pressure;altitude;pressure_sealevel;temperature;humidity
72118;BME280;59992;47.490;8.736;2023-04-26T00:01:36;96626.04;;;5.75;94.07
72118;BME280;59992;47.490;8.736;2023-04-26T00:04:27;96621.80;;;5.76;93.63
72118;BME280;59992;47.490;8.736;2023-04-26T00:07:17;96623.88;;;5.76;94.12
72118;BME280;59992;47.490;8.736;2023-04-26T00:10:09;96624.59;;;5.75;94.91
72118;BME280;59992;47.490;8.736;2023-04-26T00:13:00;96625.98;;;5.76;95.20
72118;BME280;59992;47.490;8.736;2023-04-26T00:15:50;96625.27;;;5.75;94.69
72118;BME280;59992;47.490;8.736;2023-04-26T00:18:40;96625.91;;;5.71;94.07
72118;BME280;59992;47.490;8.736;2023-04-26T00:21:31;96626.58;;;5.66;94.30
72118;BME280;59992;47.490;8.736;2023-04-26T00:24:21;96628.45;;;5.62;93.83
72118;BME280;59992;47.490;8.736;2023-04-26T00:27:11;96626.84;;;5.56;93.94
72118;BME280;59992;47.490;8.736;2023-04-26T00:30:02;96630.61;;;5.52;94.43
72118;BME280;59992;47.490;8.736;2023-04-26T00:32:52;96631.49;;;5.49;93.58
72118;BME280;59992;47.490;8.736;2023-04-26T00:35:42;96633.95;;;5.44;94.91
72118;BME280;59992;47.490;8.736;2023-04-26T00:38:33;96631.04;;;5.42;94.58
72118;BME280;59992;47.490;8.736;2023-04-26T00:41:23;96630.16;;;5.41;94.36
72118;BME280;59992;47.490;8.736;2023-04-26T00:44:14;96633.23;;;5.40;94.84
72118;BME280;59992;47.490;8.736;2023-04-26T00:47:05;96632.43;;;5.39;95.80
72118;BME280;59992;47.490;8.736;2023-04-26T00:49:55;96636.09;;;5.40;96.33
72118;BME280;59992;47.490;8.736;2023-04-26T00:52:46;96639.44;;;5.44;96.45
72118;BME280;59992;47.490;8.736;2023-04-26T00:55:36;96636.59;;;5.46;96.34
72118;BME280;59992;47.490;8.736;2023-04-26T00:58:26;96635.57;;;5.50;95.31
72118;BME280;59992;47.490;8.736;2023-04-26T01:01:17;96637.13;;;5.52;95.16
72118;BME280;59992;47.490;8.736;2023-04-26T01:04:07;96634.95;;;5.54;95.39
72118;BME280;59992;47.490;8.736;2023-04-26T01:06:58;96637.48;;;5.60;94.31
72118;BME280;59992;47.490;8.736;2023-04-26T01:09:49;96632.04;;;5.63;93.95
72118;BME280;59992;47.490;8.736;2023-04-26T01:12:40;96625.50;;;5.66;93.24
72118;BME280;59992;47.490;8.736;2023-04-26T01:15:30;96624.71;;;5.67;93.37
72118;BME280;59992;47.490;8.736;2023-04-26T01:18:21;96624.59;;;5.70;93.89
72118;BME280;59992;47.490;8.736;2023-04-26T01:21:11;96626.20;;;5.73;93.44
72118;BME280;59992;47.490;8.736;2023-04-26T01:24:09;96624.38;;;5.73;93.46
72118;BME280;59992;47.490;8.736;2023-04-26T01:27:00;96624.92;;;5.73;93.21
72118;BME280;59992;47.490;8.736;2023-04-26T01:29:52;96611.78;;;5.67;93.11
72118;BME280;59992;47.490;8.736;2023-04-26T01:32:42;96621.89;;;5.73;93.13
72118;BME280;59992;47.490;8.736;2023-04-26T01:35:32;96623.05;;;5.69;93.40
72118;BME280;59992;47.490;8.736;2023-04-26T01:38:23;96624.17;;;5.69;93.88
72118;BME280;59992;47.490;8.736;2023-04-26T01:41:14;96626.79;;;5.69;94.42
72118;BME280;59992;47.490;8.736;2023-04-26T01:44:05;96627.57;;;5.69;93.95
72118;BME280;59992;47.490;8.736;2023-04-26T01:46:55;96628.71;;;5.70;94.26
72118;BME280;59992;47.490;8.736;2023-04-26T01:49:46;96628.07;;;5.71;94.24
72118;BME280;59992;47.490;8.736;2023-04-26T01:52:36;96622.67;;;5.72;94.32
72118;BME280;59992;47.490;8.736;2023-04-26T01:55:27;96624.83;;;5.73;93.59
72118;BME280;59992;47.490;8.736;2023-04-26T01:58:17;96621.96;;;5.72;92.69
72118;BME280;59992;47.490;8.736;2023-04-26T02:01:08;96620.81;;;5.70;92.38
72118;BME280;59992;47.490;8.736;2023-04-26T02:03:59;96619.71;;;5.63;91.52
72118;BME280;59992;47.490;8.736;2023-04-26T02:06:49;96616.16;;;5.54;92.69
72118;BME280;59992;47.490;8.736;2023-04-26T02:09:39;96614.98;;;5.47;92.32
72118;BME280;59992;47.490;8.736;2023-04-26T02:12:29;96611.14;;;5.40;92.84
72118;BME280;59992;47.490;8.736;2023-04-26T02:15:19;96601.89;;;5.42;91.56
72118;BME280;59992;47.490;8.736;2023-04-26T02:18:10;96597.42;;;5.39;91.58
72118;BME280;59992;47.490;8.736;2023-04-26T02:21:01;96597.30;;;5.33;91.76
72118;BME280;59992;47.490;8.736;2023-04-26T02:23:51;96601.73;;;5.33;90.88
72118;BME280;59992;47.490;8.736;2023-04-26T02:26:41;96599.77;;;5.25;91.70
72118;BME280;59992;47.490;8.736;2023-04-26T02:29:31;96596.02;;;5.17;92.41
72118;BME280;59992;47.490;8.736;2023-04-26T02:32:21;96599.86;;;5.09;92.87
72118;BME280;59992;47.490;8.736;2023-04-26T02:35:11;96602.84;;;5.02;92.79
72118;BME280;59992;47.490;8.736;2023-04-26T02:38:02;96603.88;;;4.95;92.16
72118;BME280;59992;47.490;8.736;2023-04-26T02:40:58;96605.65;;;4.90;91.49
72118;BME280;59992;47.490;8.736;2023-04-26T02:43:48;96600.07;;;4.83;93.58
72118;BME280;59992;47.490;8.736;2023-04-26T02:46:38;96605.79;;;4.77;93.71
72118;BME280;59992;47.490;8.736;2023-04-26T02:49:29;96599.83;;;4.74;93.50
72118;BME280;59992;47.490;8.736;2023-04-26T02:52:19;96598.55;;;4.72;92.73
72118;BME280;59992;47.490;8.736;2023-04-26T02:55:10;96598.14;;;4.65;93.87
72118;BME280;59992;47.490;8.736;2023-04-26T02:58:00;96596.93;;;4.60;94.60
72118;BME280;59992;47.490;8.736;2023-04-26T03:00:51;96595.77;;;4.59;94.21
72118;BME280;59992;47.490;8.736;2023-04-26T03:03:42;96594.17;;;4.57;94.46
72118;BME280;59992;47.490;8.736;2023-04-26T03:06:32;96599.06;;;4.55;95.30
72118;BME280;59992;47.490;8.736;2023-04-26T03:09:23;96599.74;;;4.55;95.16
72118;BME280;59992;47.490;8.736;2023-04-26T03:12:13;96604.28;;;4.56;94.38
72118;BME280;59992;47.490;8.736;2023-04-26T03:15:04;96600.48;;;4.55;93.93
72118;BME280;59992;47.490;8.736;2023-04-26T03:17:54;96599.95;;;4.54;93.70
72118;BME280;59992;47.490;8.736;2023-04-26T03:20:45;96599.64;;;4.50;94.17
72118;BME280;59992;47.490;8.736;2023-04-26T03:23:36;96602.01;;;4.47;94.74
72118;BME280;59992;47.490;8.736;2023-04-26T03:26:26;96601.38;;;4.44;94.03
72118;BME280;59992;47.490;8.736;2023-04-26T03:29:17;96604.95;;;4.40;95.03
72118;BME280;59992;47.490;8.736;2023-04-26T03:32:07;96608.59;;;4.41;95.55
72118;BME280;59992;47.490;8.736;2023-04-26T03:34:57;96605.60;;;4.39;95.76
72118;BME280;59992;47.490;8.736;2023-04-26T03:37:48;96605.45;;;4.39;94.97
72118;BME280;59992;47.490;8.736;2023-04-26T03:40:38;96609.30;;;4.37;96.31
72118;BME280;59992;47.490;8.736;2023-04-26T03:43:29;96613.54;;;4.38;95.99
72118;BME280;59992;47.490;8.736;2023-04-26T03:46:20;96609.02;;;4.38;95.38
72118;BME280;59992;47.490;8.736;2023-04-26T03:49:10;96608.99;;;4.39;96.09
72118;BME280;59992;47.490;8.736;2023-04-26T03:52:00;96609.88;;;4.41;96.07
72118;BME280;59992;47.490;8.736;2023-04-26T03:54:50;96606.80;;;4.43;95.46
72118;BME280;59992;47.490;8.736;2023-04-26T03:57:40;96596.45;;;4.41;95.23
72118;BME280;59992;47.490;8.736;2023-04-26T04:00:30;96598.12;;;4.45;94.87
72118;BME280;59992;47.490;8.736;2023-04-26T04:03:20;96597.11;;;4.44;95.02
72118;BME280;59992;47.490;8.736;2023-04-26T04:06:10;96595.15;;;4.42;95.49
72118;BME280;59992;47.490;8.736;2023-04-26T04:09:00;96588.15;;;4.41;94.94
72118;BME280;59992;47.490;8.736;2023-04-26T04:11:50;96593.29;;;4.38;96.56
72118;BME280;59992;47.490;8.736;2023-04-26T04:14:41;96593.77;;;4.39;96.28
72118;BME280;59992;47.490;8.736;2023-04-26T04:17:31;96594.58;;;4.39;95.52
72118;BME280;59992;47.490;8.736;2023-04-26T04:20:21;96594.30;;;4.39;95.68
72118;BME280;59992;47.490;8.736;2023-04-26T04:23:11;96598.27;;;4.41;95.89
72118;BME280;59992;47.490;8.736;2023-04-26T04:26:01;96598.68;;;4.44;96.07
72118;BME280;59992;47.490;8.736;2023-04-26T04:28:52;96596.71;;;4.48;95.54
72118;BME280;59992;47.490;8.736;2023-04-26T04:31:43;96601.48;;;4.47;95.71
72118;BME280;59992;47.490;8.736;2023-04-26T04:34:35;96601.86;;;4.49;96.44
72118;BME280;59992;47.490;8.736;2023-04-26T04:37:25;96601.32;;;4.51;96.07
72118;BME280;59992;47.490;8.736;2023-04-26T04:40:16;96603.91;;;4.56;96.31
72118;BME280;59992;47.490;8.736;2023-04-26T04:43:06;96603.91;;;4.62;96.71
72118;BME280;59992;47.490;8.736;2023-04-26T04:45:56;96602.05;;;4.67;95.91
72118;BME280;59992;47.490;8.736;2023-04-26T04:48:46;96601.11;;;4.72;95.92
72118;BME280;59992;47.490;8.736;2023-04-26T04:51:37;96600.58;;;4.76;96.23
72118;BME280;59992;47.490;8.736;2023-04-26T04:54:28;96603.05;;;4.82;96.90
72118;BME280;59992;47.490;8.736;2023-04-26T04:57:18;96606.52;;;4.89;96.10
72118;BME280;59992;47.490;8.736;2023-04-26T05:00:10;96605.27;;;4.96;96.79
72118;BME280;59992;47.490;8.736;2023-04-26T05:03:00;96607.00;;;5.05;96.44
72118;BME280;59992;47.490;8.736;2023-04-26T05:05:50;96611.51;;;5.13;96.32
72118;BME280;59992;47.490;8.736;2023-04-26T05:08:40;96613.35;;;5.23;96.58
72118;BME280;59992;47.490;8.736;2023-04-26T05:11:31;96616.48;;;5.34;96.09
72118;BME280;59992;47.490;8.736;2023-04-26T05:14:21;96617.48;;;5.43;96.12
72118;BME280;59992;47.490;8.736;2023-04-26T05:17:12;96620.38;;;5.49;94.22
72118;BME280;59992;47.490;8.736;2023-04-26T05:20:02;96626.77;;;5.57;95.31
72118;BME280;59992;47.490;8.736;2023-04-26T05:22:54;96629.37;;;5.65;94.83
72118;BME280;59992;47.490;8.736;2023-04-26T05:25:44;96627.67;;;5.65;93.14
72118;BME280;59992;47.490;8.736;2023-04-26T05:28:34;96628.58;;;5.73;93.17
72118;BME280;59992;47.490;8.736;2023-04-26T05:31:24;96633.75;;;5.81;94.13
72118;BME280;59992;47.490;8.736;2023-04-26T05:34:15;96638.69;;;5.92;94.26
72118;BME280;59992;47.490;8.736;2023-04-26T05:37:05;96638.23;;;5.98;92.57
72118;BME280;59992;47.490;8.736;2023-04-26T05:39:55;96635.27;;;6.09;92.24
72118;BME280;59992;47.490;8.736;2023-04-26T05:42:45;96631.64;;;6.20;92.13
72118;BME280;59992;47.490;8.736;2023-04-26T05:45:36;96630.36;;;6.30;91.92
72118;BME280;59992;47.490;8.736;2023-04-26T05:48:26;96629.48;;;6.36;91.50
72118;BME280;59992;47.490;8.736;2023-04-26T05:51:17;96632.56;;;6.39;90.31
72118;BME280;59992;47.490;8.736;2023-04-26T05:54:07;96630.22;;;6.43;90.22
72118;BME280;59992;47.490;8.736;2023-04-26T05:56:57;96631.96;;;6.51;90.79
72118;BME280;59992;47.490;8.736;2023-04-26T05:59:47;96638.34;;;6.66;90.35
72118;BME280;59992;47.490;8.736;2023-04-26T06:02:38;96645.39;;;6.76;89.30
72118;BME280;59992;47.490;8.736;2023-04-26T06:05:28;96644.23;;;6.93;89.82
72118;BME280;59992;47.490;8.736;2023-04-26T06:08:18;96648.71;;;7.16;89.49
72118;BME280;59992;47.490;8.736;2023-04-26T06:11:08;96646.84;;;7.36;88.46
72118;BME280;59992;47.490;8.736;2023-04-26T06:13:59;96649.04;;;7.50;87.67
72118;BME280;59992;47.490;8.736;2023-04-26T06:16:49;96646.42;;;7.52;84.36
72118;BME280;59992;47.490;8.736;2023-04-26T06:19:39;96648.77;;;7.47;86.48
72118;BME280;59992;47.490;8.736;2023-04-26T06:22:30;96650.45;;;7.61;85.76
72118;BME280;59992;47.490;8.736;2023-04-26T06:25:20;96648.91;;;7.66;84.99
72118;BME280;59992;47.490;8.736;2023-04-26T06:28:10;96649.83;;;7.79;84.03
72118;BME280;59992;47.490;8.736;2023-04-26T06:31:00;96652.79;;;7.94;82.64
72118;BME280;59992;47.490;8.736;2023-04-26T06:33:50;96656.42;;;8.14;81.67
72118;BME280;59992;47.490;8.736;2023-04-26T06:36:39;96659.52;;;8.26;81.60
72118;BME280;59992;47.490;8.736;2023-04-26T06:39:30;96661.38;;;8.50;81.48
72118;BME280;59992;47.490;8.736;2023-04-26T06:42:20;96656.95;;;8.79;81.69
72118;BME280;59992;47.490;8.736;2023-04-26T06:45:11;96654.12;;;9.06;79.60
72118;BME280;59992;47.490;8.736;2023-04-26T06:48:01;96657.98;;;9.22;78.10
72118;BME280;59992;47.490;8.736;2023-04-26T06:50:53;96663.75;;;9.39;76.79
72118;BME280;59992;47.490;8.736;2023-04-26T06:53:44;96663.81;;;9.46;76.10
72118;BME280;59992;47.490;8.736;2023-04-26T06:56:34;96663.14;;;9.59;76.47
72118;BME280;59992;47.490;8.736;2023-04-26T06:59:24;96659.20;;;9.98;75.36
72118;BME280;59992;47.490;8.736;2023-04-26T07:02:15;96647.45;;;10.28;75.06
72118;BME280;59992;47.490;8.736;2023-04-26T07:05:05;96654.69;;;10.55;73.96
72118;BME280;59992;47.490;8.736;2023-04-26T07:07:56;96653.95;;;10.96;73.31
72118;BME280;59992;47.490;8.736;2023-04-26T07:10:46;96651.21;;;11.53;73.26
72118;BME280;59992;47.490;8.736;2023-04-26T07:13:37;96645.61;;;11.98;70.29
72118;BME280;59992;47.490;8.736;2023-04-26T07:16:27;96648.36;;;12.73;67.39
72118;BME280;59992;47.490;8.736;2023-04-26T07:19:17;96650.99;;;13.45;65.25
72118;BME280;59992;47.490;8.736;2023-04-26T07:22:08;96648.70;;;14.19;64.04
72118;BME280;59992;47.490;8.736;2023-04-26T07:24:58;96647.02;;;14.63;60.44
72118;BME280;59992;47.490;8.736;2023-04-26T07:27:49;96644.89;;;14.88;59.43
72118;BME280;59992;47.490;8.736;2023-04-26T07:30:40;96645.00;;;15.62;61.54
72118;BME280;59992;47.490;8.736;2023-04-26T07:33:31;96648.95;;;16.16;56.33
72118;BME280;59992;47.490;8.736;2023-04-26T07:36:21;96642.83;;;16.62;58.92
72118;BME280;59992;47.490;8.736;2023-04-26T07:39:11;96641.77;;;17.13;53.56
72118;BME280;59992;47.490;8.736;2023-04-26T07:42:02;96646.33;;;17.42;56.26
72118;BME280;59992;47.490;8.736;2023-04-26T07:44:52;96643.14;;;17.47;53.03
72118;BME280;59992;47.490;8.736;2023-04-26T07:47:42;96643.17;;;17.17;52.10
72118;BME280;59992;47.490;8.736;2023-04-26T07:50:33;96640.63;;;16.59;52.87
72118;BME280;59992;47.490;8.736;2023-04-26T07:53:23;96636.67;;;16.83;53.61
72118;BME280;59992;47.490;8.736;2023-04-26T07:56:13;96634.11;;;16.55;53.87
72118;BME280;59992;47.490;8.736;2023-04-26T07:59:04;96636.27;;;16.43;55.28
72118;BME280;59992;47.490;8.736;2023-04-26T08:01:54;96632.83;;;15.82;53.74
72118;BME280;59992;47.490;8.736;2023-04-26T08:04:49;96633.10;;;15.27;55.79
72118;BME280;59992;47.490;8.736;2023-04-26T08:07:40;96633.27;;;14.69;56.95
72118;BME280;59992;47.490;8.736;2023-04-26T08:10:30;96628.66;;;14.37;57.72
72118;BME280;59992;47.490;8.736;2023-04-26T08:13:20;96634.41;;;13.86;58.62
72118;BME280;59992;47.490;8.736;2023-04-26T08:16:11;96629.20;;;13.63;59.71
72118;BME280;59992;47.490;8.736;2023-04-26T08:19:01;96629.63;;;13.46;59.85
72118;BME280;59992;47.490;8.736;2023-04-26T08:21:51;96628.78;;;13.23;60.88
72118;BME280;59992;47.490;8.736;2023-04-26T08:24:41;96626.54;;;13.10;61.00
72118;BME280;59992;47.490;8.736;2023-04-26T08:27:35;96625.56;;;13.00;61.04
72118;BME280;59992;47.490;8.736;2023-04-26T08:30:26;96626.05;;;12.94;61.64
72118;BME280;59992;47.490;8.736;2023-04-26T08:33:18;96628.39;;;13.04;61.41
72118;BME280;59992;47.490;8.736;2023-04-26T08:36:08;96629.94;;;13.28;64.26
72118;BME280;59992;47.490;8.736;2023-04-26T08:38:59;96620.54;;;13.70;61.31
72118;BME280;59992;47.490;8.736;2023-04-26T08:41:53;96625.14;;;13.87;60.54
72118;BME280;59992;47.490;8.736;2023-04-26T08:44:44;96633.14;;;14.09;61.13
72118;BME280;59992;47.490;8.736;2023-04-26T08:47:39;96633.98;;;14.11;59.42
72118;BME280;59992;47.490;8.736;2023-04-26T08:50:34;96633.52;;;13.96;60.64
72118;BME280;59992;47.490;8.736;2023-04-26T08:53:25;96632.98;;;13.92;59.18
72118;BME280;59992;47.490;8.736;2023-04-26T08:56:17;96628.35;;;13.55;60.79
72118;BME280;59992;47.490;8.736;2023-04-26T08:59:09;96630.15;;;13.77;59.17
72118;BME280;59992;47.490;8.736;2023-04-26T09:01:59;96635.77;;;13.71;60.96
72118;BME280;59992;47.490;8.736;2023-04-26T09:04:51;96636.32;;;13.81;59.92
72118;BME280;59992;47.490;8.736;2023-04-26T09:07:43;96638.13;;;13.76;59.98
72118;BME280;59992;47.490;8.736;2023-04-26T09:10:33;96637.82;;;13.71;61.27
72118;BME280;59992;47.490;8.736;2023-04-26T09:13:29;96641.80;;;13.88;60.19
72118;BME280;59992;47.490;8.736;2023-04-26T09:16:19;96635.35;;;13.97;59.55
72118;BME280;59992;47.490;8.736;2023-04-26T09:19:09;96633.42;;;13.81;59.05
72118;BME280;59992;47.490;8.736;2023-04-26T09:21:59;96630.14;;;13.72;59.41
72118;BME280;59992;47.490;8.736;2023-04-26T09:24:51;96632.38;;;13.86;60.48
72118;BME280;59992;47.490;8.736;2023-04-26T09:27:42;96633.14;;;13.98;59.70
72118;BME280;59992;47.490;8.736;2023-04-26T09:30:38;96629.80;;;14.08;59.96
72118;BME280;59992;47.490;8.736;2023-04-26T09:33:28;96630.39;;;14.06;62.23
72118;BME280;59992;47.490;8.736;2023-04-26T09:36:19;96626.23;;;14.38;60.10
72118;BME280;59992;47.490;8.736;2023-04-26T09:39:09;96623.72;;;14.47;57.10
72118;BME280;59992;47.490;8.736;2023-04-26T09:42:00;96628.88;;;14.60;58.39
72118;BME280;59992;47.490;8.736;2023-04-26T09:44:51;96626.10;;;14.76;57.04
72118;BME280;59992;47.490;8.736;2023-04-26T09:47:42;96624.71;;;14.77;56.93
72118;BME280;59992;47.490;8.736;2023-04-26T09:50:33;96617.31;;;14.78;57.03
72118;BME280;59992;47.490;8.736;2023-04-26T09:53:27;96619.58;;;14.56;56.93
72118;BME280;59992;47.490;8.736;2023-04-26T09:56:19;96625.14;;;14.54;57.45
72118;BME280;59992;47.490;8.736;2023-04-26T09:59:10;96617.00;;;14.51;58.17
72118;BME280;59992;47.490;8.736;2023-04-26T10:02:00;96613.73;;;14.33;56.38
72118;BME280;59992;47.490;8.736;2023-04-26T10:04:51;96614.04;;;14.41;58.15
72118;BME280;59992;47.490;8.736;2023-04-26T10:07:42;96612.57;;;14.57;57.20
72118;BME280;59992;47.490;8.736;2023-04-26T10:10:32;96611.71;;;14.67;55.46
72118;BME280;59992;47.490;8.736;2023-04-26T10:13:24;96606.58;;;14.80;55.63
72118;BME280;59992;47.490;8.736;2023-04-26T10:16:15;96603.58;;;15.08;54.86
72118;BME280;59992;47.490;8.736;2023-04-26T10:19:05;96601.11;;;15.29;52.85
72118;BME280;59992;47.490;8.736;2023-04-26T10:21:59;96606.49;;;15.39;51.89
72118;BME280;59992;47.490;8.736;2023-04-26T10:24:53;96607.70;;;15.71;52.24
72118;BME280;59992;47.490;8.736;2023-04-26T10:27:51;96605.04;;;15.80;49.45
72118;BME280;59992;47.490;8.736;2023-04-26T10:30:55;96604.00;;;15.86;51.06
72118;BME280;59992;47.490;8.736;2023-04-26T10:34:18;96594.73;;;15.90;53.22
72118;BME280;59992;47.490;8.736;2023-04-26T10:37:10;96590.86;;;15.74;50.91
72118;BME280;59992;47.490;8.736;2023-04-26T10:40:23;96587.16;;;15.59;50.47
72118;BME280;59992;47.490;8.736;2023-04-26T10:43:30;96582.40;;;15.50;50.84
72118;BME280;59992;47.490;8.736;2023-04-26T10:46:38;96579.11;;;15.55;50.88
72118;BME280;59992;47.490;8.736;2023-04-26T10:49:44;96576.61;;;15.46;49.92
72118;BME280;59992;47.490;8.736;2023-04-26T10:52:37;96574.21;;;15.37;48.78
72118;BME280;59992;47.490;8.736;2023-04-26T10:55:40;96568.56;;;15.24;50.97
72118;BME280;59992;47.490;8.736;2023-04-26T10:58:32;96563.27;;;15.25;50.52
72118;BME280;59992;47.490;8.736;2023-04-26T11:01:22;96558.28;;;15.49;48.95
72118;BME280;59992;47.490;8.736;2023-04-26T11:04:13;96560.39;;;15.77;51.47
72118;BME280;59992;47.490;8.736;2023-04-26T11:07:04;96554.91;;;15.84;49.30
72118;BME280;59992;47.490;8.736;2023-04-26T11:09:55;96555.00;;;15.73;48.22
72118;BME280;59992;47.490;8.736;2023-04-26T11:13:00;96553.46;;;15.63;48.61
72118;BME280;59992;47.490;8.736;2023-04-26T11:16:00;96552.90;;;15.67;48.44
72118;BME280;59992;47.490;8.736;2023-04-26T11:18:54;96554.34;;;15.77;47.10
72118;BME280;59992;47.490;8.736;2023-04-26T11:21:45;96542.71;;;15.71;47.08
72118;BME280;59992;47.490;8.736;2023-04-26T11:24:35;96550.55;;;15.84;48.20
72118;BME280;59992;47.490;8.736;2023-04-26T11:27:28;96546.39;;;15.80;46.34
72118;BME280;59992;47.490;8.736;2023-04-26T11:30:20;96546.56;;;15.86;47.38
72118;BME280;59992;47.490;8.736;2023-04-26T11:33:16;96545.14;;;15.83;49.32
72118;BME280;59992;47.490;8.736;2023-04-26T11:36:07;96540.14;;;15.97;48.16
72118;BME280;59992;47.490;8.736;2023-04-26T11:38:59;96538.84;;;16.14;49.09
72118;BME280;59992;47.490;8.736;2023-04-26T11:41:50;96536.48;;;16.22;45.53
72118;BME280;59992;47.490;8.736;2023-04-26T11:44:41;96537.91;;;16.33;46.90
72118;BME280;59992;47.490;8.736;2023-04-26T11:47:31;96532.77;;;16.25;45.68
72118;BME280;59992;47.490;8.736;2023-04-26T11:50:24;96536.55;;;16.20;45.60
72118;BME280;59992;47.490;8.736;2023-04-26T11:53:16;96534.05;;;16.02;44.48
72118;BME280;59992;47.490;8.736;2023-04-26T11:56:14;96530.30;;;16.05;45.12
72118;BME280;59992;47.490;8.736;2023-04-26T11:59:05;96531.86;;;16.26;46.49
72118;BME280;59992;47.490;8.736;2023-04-26T12:01:55;96530.03;;;16.32;44.83
72118;BME280;59992;47.490;8.736;2023-04-26T12:04:46;96528.95;;;16.40;43.03
72118;BME280;59992;47.490;8.736;2023-04-26T12:07:37;96533.90;;;16.45;41.90
72118;BME280;59992;47.490;8.736;2023-04-26T12:10:30;96533.27;;;16.60;43.81
72118;BME280;59992;47.490;8.736;2023-04-26T12:13:20;96535.08;;;16.64;43.28
72118;BME280;59992;47.490;8.736;2023-04-26T12:16:12;96529.10;;;16.59;43.11
72118;BME280;59992;47.490;8.736;2023-04-26T12:19:06;96534.48;;;16.62;44.24
72118;BME280;59992;47.490;8.736;2023-04-26T12:21:56;96537.23;;;16.61;43.08
72118;BME280;59992;47.490;8.736;2023-04-26T12:24:46;96539.09;;;16.61;42.41
72118;BME280;59992;47.490;8.736;2023-04-26T12:27:37;96535.89;;;16.65;41.63
72118;BME280;59992;47.490;8.736;2023-04-26T12:30:28;96535.84;;;16.57;40.44
72118;BME280;59992;47.490;8.736;2023-04-26T12:33:19;96538.41;;;16.52;41.82
72118;BME280;59992;47.490;8.736;2023-04-26T12:36:11;96534.64;;;16.62;42.22
72118;BME280;59992;47.490;8.736;2023-04-26T12:39:01;96534.80;;;16.55;39.51
72118;BME280;59992;47.490;8.736;2023-04-26T12:41:53;96533.44;;;16.52;41.28
72118;BME280;59992;47.490;8.736;2023-04-26T12:44:43;96527.09;;;16.60;40.38
72118;BME280;59992;47.490;8.736;2023-04-26T12:47:33;96526.56;;;16.72;39.75
72118;BME280;59992;47.490;8.736;2023-04-26T12:50:23;96527.47;;;16.74;40.36
72118;BME280;59992;47.490;8.736;2023-04-26T12:53:13;96522.98;;;16.85;39.31
72118;BME280;59992;47.490;8.736;2023-04-26T12:56:04;96524.31;;;16.75;39.47
72118;BME280;59992;47.490;8.736;2023-04-26T12:58:54;96524.85;;;16.69;41.33
72118;BME280;59992;47.490;8.736;2023-04-26T13:01:44;96519.83;;;16.59;38.91
72118;BME280;59992;47.490;8.736;2023-04-26T13:04:35;96521.59;;;16.65;41.45
72118;BME280;59992;47.490;8.736;2023-04-26T13:07:26;96521.49;;;16.67;38.00
72118;BME280;59992;47.490;8.736;2023-04-26T13:10:17;96521.91;;;16.59;40.70
72118;BME280;59992;47.490;8.736;2023-04-26T13:13:07;96518.33;;;16.64;41.55
72118;BME280;59992;47.490;8.736;2023-04-26T13:15:58;96512.52;;;16.64;41.03
72118;BME280;59992;47.490;8.736;2023-04-26T13:18:49;96516.27;;;16.50;42.10
72118;BME280;59992;47.490;8.736;2023-04-26T13:21:39;96506.27;;;16.39;40.74
72118;BME280;59992;47.490;8.736;2023-04-26T13:24:29;96506.89;;;16.45;40.51
72118;BME280;59992;47.490;8.736;2023-04-26T13:27:20;96502.46;;;16.44;40.65
72118;BME280;59992;47.490;8.736;2023-04-26T13:30:12;96493.52;;;16.46;40.31
72118;BME280;59992;47.490;8.736;2023-04-26T13:33:02;96501.02;;;16.30;42.03
72118;BME280;59992;47.490;8.736;2023-04-26T13:35:53;96494.61;;;16.28;41.74
72118;BME280;59992;47.490;8.736;2023-04-26T13:38:43;96491.18;;;16.35;41.72
72118;BME280;59992;47.490;8.736;2023-04-26T13:41:34;96482.55;;;16.56;42.10
72118;BME280;59992;47.490;8.736;2023-04-26T13:44:25;96481.65;;;16.69;40.81
72118;BME280;59992;47.490;8.736;2023-04-26T13:47:16;96483.60;;;16.64;39.57
72118;BME280;59992;47.490;8.736;2023-04-26T13:50:07;96476.62;;;16.60;40.11
72118;BME280;59992;47.490;8.736;2023-04-26T13:52:58;96480.82;;;16.52;39.07
72118;BME280;59992;47.490;8.736;2023-04-26T13:55:48;96471.30;;;16.56;40.06
72118;BME280;59992;47.490;8.736;2023-04-26T13:58:38;96470.44;;;16.64;40.34
72118;BME280;59992;47.490;8.736;2023-04-26T14:01:29;96464.66;;;16.68;40.16
72118;BME280;59992;47.490;8.736;2023-04-26T14:04:19;96465.84;;;16.72;40.14
72118;BME280;59992;47.490;8.736;2023-04-26T14:07:10;96466.50;;;16.68;40.88
72118;BME280;59992;47.490;8.736;2023-04-26T14:10:01;96463.90;;;16.68;40.70
72118;BME280;59992;47.490;8.736;2023-04-26T14:12:51;96467.84;;;16.71;40.97
72118;BME280;59992;47.490;8.736;2023-04-26T14:15:42;96466.55;;;16.76;41.17
72118;BME280;59992;47.490;8.736;2023-04-26T14:18:32;96464.02;;;16.71;41.34
72118;BME280;59992;47.490;8.736;2023-04-26T14:21:23;96463.70;;;16.84;40.94
72118;BME280;59992;47.490;8.736;2023-04-26T14:24:14;96465.19;;;16.87;39.43
72118;BME280;59992;47.490;8.736;2023-04-26T14:27:04;96467.86;;;16.93;40.93
72118;BME280;59992;47.490;8.736;2023-04-26T14:29:55;96464.98;;;16.96;40.28
72118;BME280;59992;47.490;8.736;2023-04-26T14:32:45;96462.56;;;16.95;40.33
72118;BME280;59992;47.490;8.736;2023-04-26T14:35:35;96462.59;;;16.80;39.23
72118;BME280;59992;47.490;8.736;2023-04-26T14:38:25;96460.84;;;16.68;40.43
72118;BME280;59992;47.490;8.736;2023-04-26T14:41:16;96461.84;;;16.62;39.97
72118;BME280;59992;47.490;8.736;2023-04-26T14:44:07;96460.79;;;16.45;40.18
72118;BME280;59992;47.490;8.736;2023-04-26T14:46:58;96456.96;;;16.39;40.86
72118;BME280;59992;47.490;8.736;2023-04-26T14:49:49;96458.02;;;16.32;40.60
72118;BME280;59992;47.490;8.736;2023-04-26T14:52:40;96453.17;;;16.22;40.29
72118;BME280;59992;47.490;8.736;2023-04-26T14:55:30;96456.81;;;16.24;41.55
72118;BME280;59992;47.490;8.736;2023-04-26T14:58:20;96452.30;;;16.24;41.12
72118;BME280;59992;47.490;8.736;2023-04-26T15:01:11;96454.70;;;16.16;42.56
72118;BME280;59992;47.490;8.736;2023-04-26T15:04:01;96454.42;;;16.12;43.02
72118;BME280;59992;47.490;8.736;2023-04-26T15:06:51;96455.10;;;16.14;42.38
72118;BME280;59992;47.490;8.736;2023-04-26T15:09:41;96448.06;;;16.15;40.40
72118;BME280;59992;47.490;8.736;2023-04-26T15:12:31;96445.78;;;16.06;40.12